Aérodrome :
LOGIN :

S'inscrire | Disclaimer

   EN    FR    IT 

 










Légende :    VFR   VFR Marginal   IFR   IFR Intensif   IFR Très Intensif
Visi : 
Plafond : 
>= 8 km
>= 3000ft
5 à 8 km
1000 à 3000 ft
1500m à 5 km
500 à 1000 ft
800 à 1500m
200 à 500 ft
< 800m
< 200 ft
Symboles :   Orages  Brouillard  Fortes neiges  Fortes précipitations  Vent > 20 kt
SIGMETs :   Divers  Orages  Givrage  Turbulence  Onde Orograph.  Cendres Volcan.






- Altitude de l'aérodrome : 141 ft
- Code IATA : SKS


EKSP - Srydstrup Vojens

DERNIER METAR :
  • 051901Z 21020KT 6000 BKN009 BKN015 07/05 Q1007

METARs EXPIRÉS :
  • 051850Z 21020KT 8000 BKN009 BKN015 06/05 Q1007
  • 051820Z 21019KT 8000 BKN009 BKN015 07/05 Q1008
  • 051750Z 21020G30KT 8000 BKN009 BKN015 07/05 Q1008
  • 051742Z 22018G30KT 8000 BKN009 BKN015 07/05 Q1008
  • 051720Z 22019G29KT 8000 BKN009 BKN015 07/05 Q1008
  • 051650Z 22017KT 8000 BKN009 BKN015 07/06 Q1009
  • 051620Z 22016KT 7000 BKN009 BKN015 07/06 Q1009
  • 051605Z 23016KT 7000 BKN009 BKN015 07/06 Q1009

TAF TAF EKSP
Valide du 05 à 18h jusqu'au 06 à 18h UTC


051712Z 0518/0618 23016KT 9999 BKN020
BECMG 0518/0520 23018G32KT
TEMPO 0518/0522 6000 BKN008
BECMG 0522/0524 22024G38KT 5000 -RA BKN010
TEMPO 0600/0606 3000 RADZ BKN006
BECMG 0606/0608 23018G28KT
TEMPO 0606/0618 2000 RADZ BKN003



MET'MAP, la Météo Aéronautique d'un coup d'oeil ! - Copyright ORBIFLY Décembre 2007 - Disclaimer

ORBIFLY MET'MAP TEAM :

Programmation & Développement : Alexandra Zaïnal
Sur une idée originale de : Baudouin d'Aumeries
Assistance à la programmation : Marc-Olivier Méhu
Soutien technique & logistique : Manuel Goepfert

Contact : metmap@orbifly.com




SOURCES & CREDITS :

   NOAA